Temp: 10.3°C   Baro: 992.2mb
  Wind: 2.0mph   Dir: ESE (117°)
  Rain: 2.2mm (1.4mm/hr)
  Solar: 0W/m2  Hum: 84%
 
Bath Spa Weather Station Historical Data
Daily Summary for August 12, 2019 Units:  Both    English   Metric
Daily Weekly Monthly Yearly Custom
  High: Low: Average:
Temperature: 57.2 °F /  14 °C 49.1 °F /  9.5 °C 52.8 °F /  11.6 °C
Dew Point: 53.1 °F /  11.7 °C 47.1 °F /  8.4 °C 50.2 °F /  10.1 °C
Humidity: 95% 83% 91%
Wind Speed: 3.8mph /  6.1km/h - 0.9mph /  1.4km/h
Wind Gust: 7mph /  11.3km/h - -
Wind- - WSW
Pressure: 29.78 in /  1008.4 hPa 29.71 in /  1006 hPa -
Precipitation: 0.13 in /  3.3 mm    
Historical Graphs
 
 
Tabular Data for August 12, 2019
Time Temperature Dew Point Pressure Wind Wind Speed Wind Gust Humidity Rainfall Rate (Hourly) solar
00:04 50.9 °F /  10.5 °C 48.9 °F /  9.4 °C 29.72in /  1006.3hPa West 2.4mph /  3.9km/h 5mph /  8km/h 93% 0.02in /  0.51mm 0 W/m2
00:09 50.7 °F /  10.4 °C 48.7 °F /  9.3 °C 29.72in /  1006.3hPa West 2.8mph /  4.5km/h 6mph /  9.7km/h 93% 0.02in /  0.51mm 0 W/m2
00:14 50.7 °F /  10.4 °C 48.7 °F /  9.3 °C 29.72in /  1006.3hPa West 1.7mph /  2.7km/h 6mph /  9.7km/h 93% 0.02in /  0.51mm 0 W/m2
00:19 50.7 °F /  10.4 °C 48.7 °F /  9.3 °C 29.72in /  1006.3hPa West 2.7mph /  4.3km/h 6mph /  9.7km/h 93% 0.02in /  0.51mm 0 W/m2
00:24 50.7 °F /  10.4 °C 48.7 °F /  9.3 °C 29.72in /  1006.3hPa West 2.6mph /  4.2km/h 7mph /  11.3km/h 93% 0.01in /  0.25mm 0 W/m2
00:29 50.7 °F /  10.4 °C 48.7 °F /  9.3 °C 29.72in /  1006.3hPa West 2.5mph /  4km/h 7mph /  11.3km/h 93% 0.02in /  0.51mm 0 W/m2
00:34 50.5 °F /  10.3 °C 48.6 °F /  9.2 °C 29.72in /  1006.3hPa West 1.1mph /  1.8km/h 6mph /  9.7km/h 93% 0.02in /  0.51mm 0 W/m2
00:39 50.5 °F /  10.3 °C 48.6 °F /  9.2 °C 29.72in /  1006.3hPa West 2.1mph /  3.4km/h 5mph /  8km/h 93% 0.02in /  0.51mm 0 W/m2
00:44 50.5 °F /  10.3 °C 48.6 °F /  9.2 °C 29.73in /  1006.7hPa West 1.6mph /  2.6km/h 5mph /  8km/h 93% 0.02in /  0.51mm 0 W/m2
00:49 50.5 °F /  10.3 °C 48.5 °F /  9.2 °C 29.73in /  1006.7hPa West 2mph /  3.2km/h 5mph /  8km/h 93% 0.02in /  0.51mm 0 W/m2
00:54 50.4 °F /  10.2 °C 48.4 °F /  9.1 °C 29.73in /  1006.7hPa West 2.4mph /  3.9km/h 6mph /  9.7km/h 93% 0.01in /  0.25mm 0 W/m2
00:59 50.4 °F /  10.2 °C 48.4 °F /  9.1 °C 29.73in /  1006.7hPa West 2.1mph /  3.4km/h 4mph /  6.4km/h 93% 0.01in /  0.25mm 0 W/m2
01:04 50.4 °F /  10.2 °C 48.4 °F /  9.1 °C 29.72in /  1006.3hPa West 2.5mph /  4km/h 5mph /  8km/h 93% 0.01in /  0.25mm 0 W/m2
01:09 50.3 °F /  10.2 °C 48.3 °F /  9.1 °C 29.72in /  1006.3hPa West 1.7mph /  2.7km/h 6mph /  9.7km/h 93% 0.02in /  0.51mm 0 W/m2
01:14 50.2 °F /  10.1 °C 48.2 °F /  9 °C 29.72in /  1006.3hPa West 0.9mph /  1.4km/h 6mph /  9.7km/h 93% 0.02in /  0.51mm 0 W/m2
01:19 50 °F /  10 °C 48 °F /  8.9 °C 29.72in /  1006.3hPa West 1.6mph /  2.6km/h 4mph /  6.4km/h 93% 0.02in /  0.51mm 0 W/m2
01:24 50 °F /  10 °C 48 °F /  8.9 °C 29.72in /  1006.3hPa West 2.2mph /  3.5km/h 4mph /  6.4km/h 93% 0.02in /  0.51mm 0 W/m2
01:29 50 °F /  10 °C 48 °F /  8.9 °C 29.72in /  1006.3hPa West 2.5mph /  4km/h 5mph /  8km/h 93% 0.02in /  0.51mm 0 W/m2
01:34 50 °F /  10 °C 48 °F /  8.9 °C 29.72in /  1006.3hPa WNW 1.2mph /  1.9km/h 5mph /  8km/h 93% 0.01in /  0.25mm 0 W/m2
01:39 49.8 °F /  9.9 °C 47.8 °F /  8.8 °C 29.72in /  1006.3hPa WNW 1.3mph /  2.1km/h 5mph /  8km/h 93% 0.01in /  0.25mm 0 W/m2
01:44 49.8 °F /  9.9 °C 47.8 °F /  8.8 °C 29.72in /  1006.3hPa WNW 1.3mph /  2.1km/h 3mph /  4.8km/h 93% 0.01in /  0.25mm 0 W/m2
01:49 49.8 °F /  9.9 °C 47.8 °F /  8.8 °C 29.72in /  1006.3hPa WNW 1.5mph /  2.4km/h 3mph /  4.8km/h 93% 0.01in /  0.25mm 0 W/m2
01:54 49.8 °F /  9.9 °C 47.8 °F /  8.8 °C 29.72in /  1006.3hPa WNW 1mph /  1.6km/h 5mph /  8km/h 93% 0.01in /  0.25mm 0 W/m2
01:59 49.8 °F /  9.9 °C 47.8 °F /  8.8 °C 29.72in /  1006.3hPa WNW 1mph /  1.6km/h 3mph /  4.8km/h 93% 0.01in /  0.25mm 0 W/m2
02:04 49.8 °F /  9.9 °C 47.8 °F /  8.8 °C 29.72in /  1006.3hPa WNW 0.6mph /  1km/h 3mph /  4.8km/h 93% 0.01in /  0.25mm 0 W/m2
02:09 49.8 °F /  9.9 °C 47.8 °F /  8.8 °C 29.72in /  1006.3hPa WNW 0.3mph /  0.5km/h 2mph /  3.2km/h 93% 0.01in /  0.25mm 0 W/m2
02:14 49.8 °F /  9.9 °C 47.8 °F /  8.8 °C 29.72in /  1006.3hPa WNW 0.4mph /  0.6km/h 3mph /  4.8km/h 93% 0.00in /  0mm 0 W/m2
02:19 49.8 °F /  9.9 °C 47.8 °F /  8.8 °C 29.72in /  1006.3hPa WNW 0.4mph /  0.6km/h 3mph /  4.8km/h 93% 0.00in /  0mm 0 W/m2
02:24 49.8 °F /  9.9 °C 47.8 °F /  8.8 °C 29.72in /  1006.3hPa Calm   2mph /  3.2km/h 93% 0.00in /  0mm 0 W/m2
02:29 49.9 °F /  9.9 °C 47.9 °F /  8.8 °C 29.72in /  1006.3hPa WNW 0.7mph /  1.1km/h 3mph /  4.8km/h 93% 0.00in /  0mm 0 W/m2
02:34 49.8 °F /  9.9 °C 47.8 °F /  8.8 °C 29.72in /  1006.3hPa WNW 0.2mph /  0.3km/h 3mph /  4.8km/h 93% 0.00in /  0mm 0 W/m2
02:39 49.8 °F /  9.9 °C 47.8 °F /  8.8 °C 29.72in /  1006.3hPa WNW 0.6mph /  1km/h 3mph /  4.8km/h 93% 0.00in /  0mm 0 W/m2
02:44 49.8 °F /  9.9 °C 47.8 °F /  8.8 °C 29.72in /  1006.3hPa WNW 0.2mph /  0.3km/h 3mph /  4.8km/h 93% 0.00in /  0mm 0 W/m2
02:49 49.8 °F /  9.9 °C 47.8 °F /  8.8 °C 29.72in /  1006.3hPa WNW 0.3mph /  0.5km/h 3mph /  4.8km/h 93% 0.00in /  0mm 0 W/m2
02:54 49.7 °F /  9.8 °C 47.8 °F /  8.8 °C 29.72in /  1006.3hPa Calm     93% 0.00in /  0mm 0 W/m2
02:59 49.7 °F /  9.8 °C 47.7 °F /  8.7 °C 29.72in /  1006.3hPa Calm     93% 0.00in /  0mm 0 W/m2
03:04 49.6 °F /  9.8 °C 47.7 °F /  8.7 °C 29.72in /  1006.3hPa WNW 2.3mph /  3.7km/h 6mph /  9.7km/h 93% 0.00in /  0mm 0 W/m2
03:09 49.6 °F /  9.8 °C 47.7 °F /  8.7 °C 29.72in /  1006.3hPa WNW 1.1mph /  1.8km/h 6mph /  9.7km/h 93% 0.00in /  0mm 0 W/m2
03:14 49.7 °F /  9.8 °C 47.7 °F /  8.7 °C 29.72in /  1006.3hPa WNW 1.7mph /  2.7km/h 4mph /  6.4km/h 93% 0.00in /  0mm 0 W/m2
03:19 49.6 °F /  9.8 °C 47.7 °F /  8.7 °C 29.72in /  1006.3hPa WNW 0.8mph /  1.3km/h 4mph /  6.4km/h 93% 0.00in /  0mm 0 W/m2
03:24 49.6 °F /  9.8 °C 47.7 °F /  8.7 °C 29.72in /  1006.3hPa WNW 1.9mph /  3.1km/h 4mph /  6.4km/h 93% 0.00in /  0mm 0 W/m2
03:29 49.6 °F /  9.8 °C 47.7 °F /  8.7 °C 29.72in /  1006.3hPa WNW 0.6mph /  1km/h 4mph /  6.4km/h 93% 0.00in /  0mm 0 W/m2
03:34 49.6 °F /  9.8 °C 47.7 °F /  8.7 °C 29.72in /  1006.3hPa WNW 1mph /  1.6km/h 5mph /  8km/h 93% 0.00in /  0mm 0 W/m2
03:39 49.6 °F /  9.8 °C 47.7 °F /  8.7 °C 29.71in /  1006hPa WNW 1.2mph /  1.9km/h 4mph /  6.4km/h 93% 0.00in /  0mm 0 W/m2
03:44 49.6 °F /  9.8 °C 47.7 °F /  8.7 °C 29.72in /  1006.3hPa WNW 0.6mph /  1km/h 4mph /  6.4km/h 93% 0.00in /  0mm 0 W/m2
03:49 49.5 °F /  9.7 °C 47.5 °F /  8.6 °C 29.72in /  1006.3hPa WNW 1.6mph /  2.6km/h 5mph /  8km/h 93% 0.00in /  0mm 0 W/m2
03:54 49.5 °F /  9.7 °C 47.5 °F /  8.6 °C 29.72in /  1006.3hPa WNW 0.4mph /  0.6km/h 3mph /  4.8km/h 93% 0.00in /  0mm 0 W/m2
03:59 49.5 °F /  9.7 °C 47.5 °F /  8.6 °C 29.72in /  1006.3hPa WNW 0.9mph /  1.4km/h 4mph /  6.4km/h 93% 0.00in /  0mm 0 W/m2
04:04 49.5 °F /  9.7 °C 47.5 °F /  8.6 °C 29.72in /  1006.3hPa WNW 0.8mph /  1.3km/h 4mph /  6.4km/h 93% 0.00in /  0mm 0 W/m2
04:09 49.5 °F /  9.7 °C 47.5 °F /  8.6 °C 29.72in /  1006.3hPa WNW 0.1mph /  0.2km/h 3mph /  4.8km/h 93% 0.00in /  0mm 0 W/m2
04:14 49.5 °F /  9.7 °C 47.5 °F /  8.6 °C 29.72in /  1006.3hPa WNW 0.2mph /  0.3km/h 2mph /  3.2km/h 93% 0.00in /  0mm 0 W/m2
04:19 49.4 °F /  9.7 °C 47.4 °F /  8.6 °C 29.71in /  1006hPa WNW 0.5mph /  0.8km/h 4mph /  6.4km/h 93% 0.00in /  0mm 0 W/m2
04:24 49.3 °F /  9.6 °C 47.3 °F /  8.5 °C 29.71in /  1006hPa WNW 1.3mph /  2.1km/h 5mph /  8km/h 93% 0.00in /  0mm 0 W/m2
04:29 49.3 °F /  9.6 °C 47.3 °F /  8.5 °C 29.72in /  1006.3hPa WNW 0.2mph /  0.3km/h 5mph /  8km/h 93% 0.00in /  0mm 0 W/m2
04:34 49.3 °F /  9.6 °C 47.3 °F /  8.5 °C 29.72in /  1006.3hPa WNW 2.3mph /  3.7km/h 5mph /  8km/h 93% 0.00in /  0mm 0 W/m2
04:39 49.2 °F /  9.6 °C 47.2 °F /  8.4 °C 29.72in /  1006.3hPa WNW 1.8mph /  2.9km/h 4mph /  6.4km/h 93% 0.00in /  0mm 0 W/m2
04:44 49.1 °F /  9.5 °C 47.1 °F /  8.4 °C 29.72in /  1006.3hPa WNW 2mph /  3.2km/h 4mph /  6.4km/h 93% 0.00in /  0mm 0 W/m2
04:49 49.1 °F /  9.5 °C 47.1 °F /  8.4 °C 29.71in /  1006hPa WNW 0.8mph /  1.3km/h 4mph /  6.4km/h 93% 0.00in /  0mm 0 W/m2
04:54 49.1 °F /  9.5 °C 47.1 °F /  8.4 °C 29.72in /  1006.3hPa WNW 0.1mph /  0.2km/h 2mph /  3.2km/h 93% 0.00in /  0mm 0 W/m2
04:59 49.2 °F /  9.6 °C 47.2 °F /  8.4 °C 29.72in /  1006.3hPa WNW 0.6mph /  1km/h 2mph /  3.2km/h 93% 0.00in /  0mm 0 W/m2
05:04 49.2 °F /  9.6 °C 47.2 °F /  8.4 °C 29.72in /  1006.3hPa WNW 0.1mph /  0.2km/h 2mph /  3.2km/h 93% 0.00in /  0mm 0 W/m2
05:09 49.3 °F /  9.6 °C 47.3 °F /  8.5 °C 29.72in /  1006.3hPa WNW 0.2mph /  0.3km/h 2mph /  3.2km/h 93% 0.00in /  0mm 0 W/m2
05:14 49.2 °F /  9.6 °C 47.2 °F /  8.4 °C 29.72in /  1006.3hPa WNW 0.9mph /  1.4km/h 6mph /  9.7km/h 93% 0.00in /  0mm 0 W/m2
05:19 49.1 °F /  9.5 °C 47.1 °F /  8.4 °C 29.72in /  1006.3hPa WNW 0.9mph /  1.4km/h 5mph /  8km/h 93% 0.00in /  0mm 0 W/m2
05:24 49.3 °F /  9.6 °C 47.3 °F /  8.5 °C 29.72in /  1006.3hPa WNW 0.1mph /  0.2km/h 2mph /  3.2km/h 93% 0.00in /  0mm 0 W/m2
05:29 49.4 °F /  9.7 °C 47.4 °F /  8.6 °C 29.72in /  1006.3hPa WNW 0.4mph /  0.6km/h 3mph /  4.8km/h 93% 0.00in /  0mm 0 W/m2
05:34 49.5 °F /  9.7 °C 47.5 °F /  8.6 °C 29.72in /  1006.3hPa WNW 0.4mph /  0.6km/h 2mph /  3.2km/h 93% 0.00in /  0mm 0 W/m2
05:39 49.4 °F /  9.7 °C 47.4 °F /  8.6 °C 29.72in /  1006.3hPa WNW 0.2mph /  0.3km/h 2mph /  3.2km/h 93% 0.00in /  0mm 0 W/m2
05:44 49.2 °F /  9.6 °C 47.2 °F /  8.4 °C 29.72in /  1006.3hPa Calm   2mph /  3.2km/h 93% 0.00in /  0mm 0 W/m2
05:49 49.2 °F /  9.6 °C 47.2 °F /  8.4 °C 29.72in /  1006.3hPa Calm   1mph /  1.6km/h 93% 0.00in /  0mm 0 W/m2
05:54 49.2 °F /  9.6 °C 47.2 °F /  8.4 °C 29.72in /  1006.3hPa Calm   1mph /  1.6km/h 93% 0.00in /  0mm 0 W/m2
05:59 49.3 °F /  9.6 °C 47.3 °F /  8.5 °C 29.72in /  1006.3hPa Calm     93% 0.00in /  0mm 0 W/m2
06:04 49.3 °F /  9.6 °C 47.3 °F /  8.5 °C 29.72in /  1006.3hPa WNW 0.1mph /  0.2km/h 1mph /  1.6km/h 93% 0.01in /  0.25mm 0 W/m2
06:09 49.3 °F /  9.6 °C 47.3 °F /  8.5 °C 29.72in /  1006.3hPa WNW 0.1mph /  0.2km/h 1mph /  1.6km/h 93% 0.01in /  0.25mm 0 W/m2
06:14 49.3 °F /  9.6 °C 47.3 °F /  8.5 °C 29.73in /  1006.7hPa WNW 0.8mph /  1.3km/h 2mph /  3.2km/h 93% 0.01in /  0.25mm 0 W/m2
06:19 49.3 °F /  9.6 °C 47.3 °F /  8.5 °C 29.73in /  1006.7hPa WNW 0.1mph /  0.2km/h 2mph /  3.2km/h 93% 0.01in /  0.25mm 0 W/m2
06:24 49.3 °F /  9.6 °C 47.3 °F /  8.5 °C 29.73in /  1006.7hPa Calm     93% 0.01in /  0.25mm 0 W/m2
06:29 49.4 °F /  9.7 °C 47.4 °F /  8.6 °C 29.73in /  1006.7hPa Calm     93% 0.01in /  0.25mm 0 W/m2
06:34 49.5 °F /  9.7 °C 47.5 °F /  8.6 °C 29.73in /  1006.7hPa WNW 0.2mph /  0.3km/h 1mph /  1.6km/h 93% 0.01in /  0.25mm 0 W/m2
06:39 49.4 °F /  9.7 °C 47.4 °F /  8.6 °C 29.73in /  1006.7hPa WNW 0.4mph /  0.6km/h 2mph /  3.2km/h 93% 0.01in /  0.25mm 0 W/m2
06:44 49.3 °F /  9.6 °C 47.3 °F /  8.5 °C 29.73in /  1006.7hPa WNW 0.2mph /  0.3km/h 2mph /  3.2km/h 93% 0.02in /  0.51mm 0 W/m2
06:49 49.2 °F /  9.6 °C 47.3 °F /  8.5 °C 29.73in /  1006.7hPa WNW 0.8mph /  1.3km/h 3mph /  4.8km/h 93.2% 0.02in /  0.51mm 0 W/m2
06:54 49.1 °F /  9.5 °C 47.4 °F /  8.6 °C 29.73in /  1006.7hPa WNW 0.4mph /  0.6km/h 3mph /  4.8km/h 93.7% 0.02in /  0.51mm 0 W/m2
06:59 49.3 °F /  9.6 °C 47.5 °F /  8.6 °C 29.73in /  1006.7hPa Calm   1mph /  1.6km/h 93.5% 0.02in /  0.51mm 0 W/m2
07:04 49.3 °F /  9.6 °C 47.5 °F /  8.6 °C 29.73in /  1006.7hPa WNW 1.2mph /  1.9km/h 4mph /  6.4km/h 93.4% 0.02in /  0.51mm 0 W/m2
07:09 49.3 °F /  9.6 °C 47.7 °F /  8.7 °C 29.73in /  1006.7hPa Calm   1mph /  1.6km/h 94% 0.02in /  0.51mm 0 W/m2
07:14 49.3 °F /  9.6 °C 47.7 °F /  8.7 °C 29.73in /  1006.7hPa WNW 0.6mph /  1km/h 3mph /  4.8km/h 94% 0.02in /  0.51mm 0 W/m2
07:19 49.2 °F /  9.6 °C 47.6 °F /  8.7 °C 29.73in /  1006.7hPa WNW 0.3mph /  0.5km/h 2mph /  3.2km/h 94% 0.02in /  0.51mm 0 W/m2
07:24 49.1 °F /  9.5 °C 47.5 °F /  8.6 °C 29.73in /  1006.7hPa WNW 0.2mph /  0.3km/h 2mph /  3.2km/h 94% 0.02in /  0.51mm 0 W/m2
07:29 49.2 °F /  9.6 °C 47.6 °F /  8.7 °C 29.73in /  1006.7hPa Calm   2mph /  3.2km/h 94% 0.02in /  0.51mm 0 W/m2
07:34 49.1 °F /  9.5 °C 47.5 °F /  8.6 °C 29.72in /  1006.3hPa WNW 0.1mph /  0.2km/h 2mph /  3.2km/h 94% 0.02in /  0.51mm 0 W/m2
07:39 49.2 °F /  9.6 °C 47.6 °F /  8.7 °C 29.73in /  1006.7hPa Calm     94% 0.02in /  0.51mm 0 W/m2
07:44 49.4 °F /  9.7 °C 47.8 °F /  8.8 °C 29.73in /  1006.7hPa Calm     94% 0.02in /  0.51mm 5 W/m2
07:49 49.5 °F /  9.7 °C 47.8 °F /  8.8 °C 29.73in /  1006.7hPa Calm     94% 0.02in /  0.51mm 7 W/m2
07:54 49.5 °F /  9.7 °C 47.8 °F /  8.8 °C 29.73in /  1006.7hPa Calm     94% 0.02in /  0.51mm 9 W/m2
07:59 49.5 °F /  9.7 °C 47.8 °F /  8.8 °C 29.73in /  1006.7hPa Calm   1mph /  1.6km/h 94% 0.01in /  0.25mm 11 W/m2
08:04 49.5 °F /  9.7 °C 47.8 °F /  8.8 °C 29.73in /  1006.7hPa WNW 0.1mph /  0.2km/h 1mph /  1.6km/h 94% 0.01in /  0.25mm 11 W/m2
08:09 49.5 °F /  9.7 °C 47.8 °F /  8.8 °C 29.74in /  1007hPa Calm   1mph /  1.6km/h 94% 0.01in /  0.25mm 11 W/m2
08:14 49.5 °F /  9.7 °C 47.8 °F /  8.8 °C 29.73in /  1006.7hPa Calm     94% 0.01in /  0.25mm 16 W/m2
08:19 49.5 °F /  9.7 °C 47.8 °F /  8.8 °C 29.73in /  1006.7hPa Calm     94% 0.01in /  0.25mm 19 W/m2
08:24 49.5 °F /  9.7 °C 47.8 °F /  8.8 °C 29.74in /  1007hPa Calm     94% 0.01in /  0.25mm 19 W/m2
08:29 49.5 °F /  9.7 °C 47.8 °F /  8.8 °C 29.74in /  1007hPa Calm     94% 0.01in /  0.25mm 25 W/m2
08:34 49.5 °F /  9.7 °C 47.8 °F /  8.8 °C 29.74in /  1007hPa Calm     94% 0.01in /  0.25mm 39 W/m2
08:39 49.6 °F /  9.8 °C 47.9 °F /  8.8 °C 29.74in /  1007hPa Calm     94% 0.01in /  0.25mm 40 W/m2
08:44 49.6 °F /  9.8 °C 48 °F /  8.9 °C 29.74in /  1007hPa WNW 0.1mph /  0.2km/h 1mph /  1.6km/h 94% 0.00in /  0mm 40 W/m2
08:49 49.6 °F /  9.8 °C 48 °F /  8.9 °C 29.74in /  1007hPa Calm     94% 0.00in /  0mm 40 W/m2
08:54 49.7 °F /  9.8 °C 48.1 °F /  8.9 °C 29.75in /  1007.3hPa Calm     94% 0.00in /  0mm 56 W/m2
08:59 49.8 °F /  9.9 °C 48.2 °F /  9 °C 29.75in /  1007.3hPa Calm     94% 0.00in /  0mm 53 W/m2
09:04 49.9 °F /  9.9 °C 48.3 °F /  9.1 °C 29.75in /  1007.3hPa Calm     94% 0.00in /  0mm 49 W/m2
09:09 50 °F /  10 °C 48.5 °F /  9.2 °C 29.75in /  1007.3hPa Calm     94.3% 0.00in /  0mm 49 W/m2
09:14 50.1 °F /  10.1 °C 48.6 °F /  9.2 °C 29.75in /  1007.3hPa Calm     94.7% 0.00in /  0mm 53 W/m2
09:19 50.3 °F /  10.2 °C 48.8 °F /  9.3 °C 29.76in /  1007.7hPa Calm     95% 0.00in /  0mm 60 W/m2
09:24 50.1 °F /  10.1 °C 48.7 °F /  9.3 °C 29.75in /  1007.3hPa WNW 0.1mph /  0.2km/h 1mph /  1.6km/h 95% 0.00in /  0mm 62 W/m2
09:29 51.6 °F /  10.9 °C 50.2 °F /  10.1 °C 29.76in /  1007.7hPa Calm     95% 0.00in /  0mm 56 W/m2
09:34 51.8 °F /  11 °C 50.4 °F /  10.2 °C 29.76in /  1007.7hPa Calm     95% 0.00in /  0mm 58 W/m2
09:39 52 °F /  11.1 °C 50.5 °F /  10.3 °C 29.76in /  1007.7hPa WNW 0.2mph /  0.3km/h 1mph /  1.6km/h 94.8% 0.00in /  0mm 62 W/m2
09:44 52 °F /  11.1 °C 50.4 °F /  10.2 °C 29.76in /  1007.7hPa Calm   1mph /  1.6km/h 94.2% 0.00in /  0mm 63 W/m2
09:49 52 °F /  11.1 °C 50.5 °F /  10.3 °C 29.76in /  1007.7hPa Calm   1mph /  1.6km/h 95% 0.00in /  0mm 70 W/m2
09:54 52.1 °F /  11.2 °C 50.6 °F /  10.3 °C 29.76in /  1007.7hPa Calm     95% 0.00in /  0mm 70 W/m2
09:59 52.3 °F /  11.3 °C 50.9 °F /  10.5 °C 29.76in /  1007.7hPa Calm     95% 0.00in /  0mm 70 W/m2
10:04 52.5 °F /  11.4 °C 51.1 °F /  10.6 °C 29.77in /  1008hPa Calm     95% 0.00in /  0mm 70 W/m2
10:09 52.3 °F /  11.3 °C 50.9 °F /  10.5 °C 29.77in /  1008hPa Calm     95% 0.00in /  0mm 65 W/m2
10:14 52.3 °F /  11.3 °C 50.9 °F /  10.5 °C 29.76in /  1007.7hPa Calm     95% 0.00in /  0mm 67 W/m2
10:19 52.4 °F /  11.3 °C 51 °F /  10.6 °C 29.76in /  1007.7hPa Calm     95% 0.00in /  0mm 65 W/m2
10:24 52.3 °F /  11.3 °C 50.9 °F /  10.5 °C 29.77in /  1008hPa Calm     95% 0.00in /  0mm 76 W/m2
10:29 52.5 °F /  11.4 °C 51.1 °F /  10.6 °C 29.77in /  1008hPa WNW 0.1mph /  0.2km/h 1mph /  1.6km/h 95% 0.00in /  0mm 95 W/m2
10:34 52.6 °F /  11.4 °C 51.2 °F /  10.7 °C 29.76in /  1007.7hPa Calm   1mph /  1.6km/h 95% 0.00in /  0mm 95 W/m2
10:39 52.8 °F /  11.6 °C 51.4 °F /  10.8 °C 29.76in /  1007.7hPa Calm     95% 0.00in /  0mm 111 W/m2
10:44 53.1 °F /  11.7 °C 51.6 °F /  10.9 °C 29.77in /  1008hPa Calm     95% 0.00in /  0mm 125 W/m2
10:49 53 °F /  11.7 °C 51.5 °F /  10.8 °C 29.77in /  1008hPa Calm     95% 0.00in /  0mm 155 W/m2
10:54 53.1 °F /  11.7 °C 51.6 °F /  10.9 °C 29.77in /  1008hPa Calm     95% 0.00in /  0mm 163 W/m2
10:59 53.1 °F /  11.7 °C 51.6 °F /  10.9 °C 29.77in /  1008hPa WNW 1.1mph /  1.8km/h 3mph /  4.8km/h 95% 0.00in /  0mm 155 W/m2
11:04 53.1 °F /  11.7 °C 51.6 °F /  10.9 °C 29.78in /  1008.4hPa WNW 0.2mph /  0.3km/h 3mph /  4.8km/h 95% 0.00in /  0mm 137 W/m2
11:09 53.2 °F /  11.8 °C 51.8 °F /  11 °C 29.77in /  1008hPa WNW 0.2mph /  0.3km/h 2mph /  3.2km/h 95% 0.00in /  0mm 148 W/m2
11:14 53.2 °F /  11.8 °C 51.8 °F /  11 °C 29.77in /  1008hPa West 2.3mph /  3.7km/h 5mph /  8km/h 95% 0.00in /  0mm 162 W/m2
11:19 53.2 °F /  11.8 °C 51.8 °F /  11 °C 29.78in /  1008.4hPa West 1.9mph /  3.1km/h 5mph /  8km/h 95% 0.00in /  0mm 181 W/m2
11:24 53.4 °F /  11.9 °C 51.8 °F /  11 °C 29.78in /  1008.4hPa West 1.7mph /  2.7km/h 6mph /  9.7km/h 94.1% 0.00in /  0mm 185 W/m2
11:29 53.6 °F /  12 °C 52 °F /  11.1 °C 29.78in /  1008.4hPa West 0.3mph /  0.5km/h 6mph /  9.7km/h 94.2% 0.00in /  0mm 186 W/m2
11:34 53.9 °F /  12.2 °C 52.3 °F /  11.3 °C 29.78in /  1008.4hPa West 1.1mph /  1.8km/h 5mph /  8km/h 94% 0.00in /  0mm 206 W/m2
11:39 54 °F /  12.2 °C 52.3 °F /  11.3 °C 29.78in /  1008.4hPa West 1.3mph /  2.1km/h 5mph /  8km/h 94% 0.00in /  0mm 214 W/m2
11:44 54 °F /  12.2 °C 52.3 °F /  11.3 °C 29.77in /  1008hPa West 0.8mph /  1.3km/h 5mph /  8km/h 94% 0.00in /  0mm 214 W/m2
11:49 54.2 °F /  12.3 °C 52.6 °F /  11.4 °C 29.78in /  1008.4hPa West 2.3mph /  3.7km/h 5mph /  8km/h 94% 0.00in /  0mm 232 W/m2
11:54 54.1 °F /  12.3 °C 52.5 °F /  11.4 °C 29.78in /  1008.4hPa West 0.7mph /  1.1km/h 5mph /  8km/h 94% 0.00in /  0mm 253 W/m2
11:59 54.4 °F /  12.4 °C 52.6 °F /  11.4 °C 29.78in /  1008.4hPa West 0.9mph /  1.4km/h 4mph /  6.4km/h 93.6% 0.00in /  0mm 269 W/m2
12:04 54.6 °F /  12.6 °C 52.6 °F /  11.4 °C 29.77in /  1008hPa WSW 3.1mph /  5km/h 6mph /  9.7km/h 93% 0.00in /  0mm 295 W/m2
12:09 54.7 °F /  12.6 °C 52.6 °F /  11.4 °C 29.77in /  1008hPa WSW 1.2mph /  1.9km/h 6mph /  9.7km/h 92.5% 0.00in /  0mm 285 W/m2
12:14 55.1 °F /  12.8 °C 52.8 °F /  11.6 °C 29.77in /  1008hPa WSW 1.3mph /  2.1km/h 5mph /  8km/h 92% 0.00in /  0mm 250 W/m2
12:19 55.3 °F /  12.9 °C 52.8 °F /  11.6 °C 29.77in /  1008hPa WSW 1.3mph /  2.1km/h 5mph /  8km/h 91.1% 0.00in /  0mm 227 W/m2
12:24 55.1 °F /  12.8 °C 52.3 °F /  11.3 °C 29.77in /  1008hPa WSW 2.5mph /  4km/h 6mph /  9.7km/h 90.3% 0.00in /  0mm 264 W/m2
12:29 55.4 °F /  13 °C 52.4 °F /  11.3 °C 29.77in /  1008hPa WSW 1.2mph /  1.9km/h 4mph /  6.4km/h 89.6% 0.00in /  0mm 265 W/m2
12:34 55.3 °F /  12.9 °C 52.1 °F /  11.2 °C 29.77in /  1008hPa WSW 1.7mph /  2.7km/h 4mph /  6.4km/h 88.8% 0.00in /  0mm 243 W/m2
12:39 55.7 °F /  13.2 °C 52.4 °F /  11.3 °C 29.77in /  1008hPa WSW 1mph /  1.6km/h 4mph /  6.4km/h 88.7% 0.00in /  0mm 230 W/m2
12:44 55.9 °F /  13.3 °C 52.4 °F /  11.3 °C 29.77in /  1008hPa WSW 2.1mph /  3.4km/h 5mph /  8km/h 88% 0.00in /  0mm 227 W/m2
12:49 55.9 °F /  13.3 °C 52.5 °F /  11.4 °C 29.77in /  1008hPa WSW 2.5mph /  4km/h 6mph /  9.7km/h 88% 0.00in /  0mm 302 W/m2
12:54 56.1 °F /  13.4 °C 52.7 °F /  11.5 °C 29.77in /  1008hPa WSW 2.6mph /  4.2km/h 6mph /  9.7km/h 87.9% 0.00in /  0mm 410 W/m2
12:59 56.3 °F /  13.5 °C 52.4 °F /  11.3 °C 29.77in /  1008hPa WSW 2.9mph /  4.7km/h 7mph /  11.3km/h 86.8% 0.00in /  0mm 339 W/m2
13:04 56.3 °F /  13.5 °C 52.2 °F /  11.2 °C 29.76in /  1007.7hPa SW 2.8mph /  4.5km/h 7mph /  11.3km/h 86% 0.00in /  0mm 316 W/m2
13:09 56.2 °F /  13.4 °C 51.9 °F /  11.1 °C 29.76in /  1007.7hPa SW 2.4mph /  3.9km/h 6mph /  9.7km/h 85.5% 0.00in /  0mm 316 W/m2
13:14 56.3 °F /  13.5 °C 52.1 °F /  11.2 °C 29.76in /  1007.7hPa SW 2.9mph /  4.7km/h 6mph /  9.7km/h 85.6% 0.00in /  0mm 246 W/m2
13:19 56.5 °F /  13.6 °C 52.3 °F /  11.3 °C 29.76in /  1007.7hPa SW 2.8mph /  4.5km/h 6mph /  9.7km/h 86% 0.00in /  0mm 253 W/m2
13:24 56.3 °F /  13.5 °C 52 °F /  11.1 °C 29.76in /  1007.7hPa SW 1.4mph /  2.3km/h 4mph /  6.4km/h 85.6% 0.00in /  0mm 227 W/m2
13:29 56.7 °F /  13.7 °C 52.5 °F /  11.4 °C 29.77in /  1008hPa SW 1.7mph /  2.7km/h 6mph /  9.7km/h 86% 0.00in /  0mm 178 W/m2
13:34 56.7 °F /  13.7 °C 52.5 °F /  11.4 °C 29.77in /  1008hPa SW 1.7mph /  2.7km/h 5mph /  8km/h 86% 0.00in /  0mm 174 W/m2
13:39 56.5 °F /  13.6 °C 52.3 °F /  11.3 °C 29.77in /  1008hPa SW 2.5mph /  4km/h 5mph /  8km/h 86% 0.00in /  0mm 232 W/m2
13:44 56.7 °F /  13.7 °C 52.5 °F /  11.4 °C 29.76in /  1007.7hPa SW 1.4mph /  2.3km/h 4mph /  6.4km/h 86% 0.00in /  0mm 255 W/m2
13:49 56.7 °F /  13.7 °C 52.5 °F /  11.4 °C 29.76in /  1007.7hPa SW 2.3mph /  3.7km/h 5mph /  8km/h 86% 0.00in /  0mm 260 W/m2
13:54 56.7 °F /  13.7 °C 52.5 °F /  11.4 °C 29.76in /  1007.7hPa SW 2.2mph /  3.5km/h 5mph /  8km/h 85.9% 0.00in /  0mm 241 W/m2
13:59 56.8 °F /  13.8 °C 52.3 °F /  11.3 °C 29.76in /  1007.7hPa SW 0.5mph /  0.8km/h 5mph /  8km/h 85% 0.00in /  0mm 200 W/m2
14:04 57.2 °F /  14 °C 53.1 °F /  11.7 °C 29.76in /  1007.7hPa SW 1.9mph /  3.1km/h 6mph /  9.7km/h 86% 0.00in /  0mm 192 W/m2
14:09 57.1 °F /  13.9 °C 52.6 °F /  11.4 °C 29.76in /  1007.7hPa SW 1.3mph /  2.1km/h 6mph /  9.7km/h 85.1% 0.00in /  0mm 181 W/m2
14:14 56.9 °F /  13.8 °C 52.4 °F /  11.3 °C 29.76in /  1007.7hPa SW 3.2mph /  5.1km/h 7mph /  11.3km/h 85% 0.00in /  0mm 162 W/m2
14:19 56.8 °F /  13.8 °C 52.3 °F /  11.3 °C 29.76in /  1007.7hPa SW 2.4mph /  3.9km/h 7mph /  11.3km/h 85% 0.00in /  0mm 160 W/m2
14:24 57 °F /  13.9 °C 52.5 °F /  11.4 °C 29.76in /  1007.7hPa SW 2.3mph /  3.7km/h 6mph /  9.7km/h 85% 0.00in /  0mm 151 W/m2
14:29 57 °F /  13.9 °C 52.4 °F /  11.3 °C 29.75in /  1007.3hPa SW 1.5mph /  2.4km/h 5mph /  8km/h 84.8% 0.00in /  0mm 151 W/m2
14:34 57 °F /  13.9 °C 52.2 °F /  11.2 °C 29.75in /  1007.3hPa SW 2mph /  3.2km/h 6mph /  9.7km/h 84% 0.00in /  0mm 141 W/m2
14:39 57 °F /  13.9 °C 52.5 °F /  11.4 °C 29.76in /  1007.7hPa SW 1.2mph /  1.9km/h 4mph /  6.4km/h 85% 0.00in /  0mm 132 W/m2
14:44 57 °F /  13.9 °C 52.3 °F /  11.3 °C 29.76in /  1007.7hPa SW 2.3mph /  3.7km/h 6mph /  9.7km/h 84.4% 0.00in /  0mm 123 W/m2
14:49 57 °F /  13.9 °C 52.2 °F /  11.2 °C 29.75in /  1007.3hPa SW 1.6mph /  2.6km/h 6mph /  9.7km/h 84% 0.00in /  0mm 114 W/m2
14:54 56.9 °F /  13.8 °C 52.1 °F /  11.2 °C 29.76in /  1007.7hPa SW 1.7mph /  2.7km/h 4mph /  6.4km/h 83.7% 0.00in /  0mm 104 W/m2
14:59 57 °F /  13.9 °C 52.1 °F /  11.2 °C 29.76in /  1007.7hPa SW 1mph /  1.6km/h 4mph /  6.4km/h 83.3% 0.00in /  0mm 98 W/m2
15:04 57 °F /  13.9 °C 52.2 °F /  11.2 °C 29.75in /  1007.3hPa SW 1.1mph /  1.8km/h 4mph /  6.4km/h 84% 0.00in /  0mm 95 W/m2
15:09 57 °F /  13.9 °C 52.2 °F /  11.2 °C 29.75in /  1007.3hPa SW 1mph /  1.6km/h 4mph /  6.4km/h 84% 0.00in /  0mm 90 W/m2
15:14 56.8 °F /  13.8 °C 52 °F /  11.1 °C 29.75in /  1007.3hPa SW 3.1mph /  5km/h 5mph /  8km/h 84% 0.00in /  0mm 88 W/m2
15:19 56.7 °F /  13.7 °C 51.8 °F /  11 °C 29.75in /  1007.3hPa SW 2mph /  3.2km/h 5mph /  8km/h 84% 0.00in /  0mm 84 W/m2
15:24 56.7 °F /  13.7 °C 51.8 °F /  11 °C 29.75in /  1007.3hPa SW 1.7mph /  2.7km/h 4mph /  6.4km/h 84% 0.00in /  0mm 83 W/m2
15:29 56.7 °F /  13.7 °C 51.8 °F /  11 °C 29.75in /  1007.3hPa SW 1.7mph /  2.7km/h 5mph /  8km/h 84% 0.00in /  0mm 79 W/m2
15:34 56.7 °F /  13.7 °C 51.8 °F /  11 °C 29.74in /  1007hPa SW 1.5mph /  2.4km/h 5mph /  8km/h 84% 0.00in /  0mm 83 W/m2
15:39 56.7 °F /  13.7 °C 51.8 °F /  11 °C 29.74in /  1007hPa SW 0.7mph /  1.1km/h 4mph /  6.4km/h 84% 0.00in /  0mm 83 W/m2
15:44 56.7 °F /  13.7 °C 51.8 °F /  11 °C 29.74in /  1007hPa SW 0.1mph /  0.2km/h 2mph /  3.2km/h 84% 0.00in /  0mm 81 W/m2
15:49 56.7 °F /  13.7 °C 51.8 °F /  11 °C 29.74in /  1007hPa SW 0.2mph /  0.3km/h 3mph /  4.8km/h 84% 0.00in /  0mm 83 W/m2
15:54 56.8 °F /  13.8 °C 51.9 °F /  11.1 °C 29.74in /  1007hPa Calm   1mph /  1.6km/h 83.8% 0.00in /  0mm 86 W/m2
15:59 56.8 °F /  13.8 °C 52 °F /  11.1 °C 29.74in /  1007hPa SW 0.1mph /  0.2km/h 1mph /  1.6km/h 84% 0.00in /  0mm 95 W/m2
16:04 56.7 °F /  13.7 °C 51.8 °F /  11 °C 29.74in /  1007hPa SW 0.2mph /  0.3km/h 2mph /  3.2km/h 83.7% 0.00in /  0mm 132 W/m2
16:09 56.8 °F /  13.8 °C 51.8 °F /  11 °C 29.74in /  1007hPa SW 1.1mph /  1.8km/h 3mph /  4.8km/h 83% 0.00in /  0mm 132 W/m2
16:14 56.8 °F /  13.8 °C 51.8 °F /  11 °C 29.74in /  1007hPa SW 0.1mph /  0.2km/h 2mph /  3.2km/h 83% 0.00in /  0mm 111 W/m2
16:19 56.8 °F /  13.8 °C 51.8 °F /  11 °C 29.74in /  1007hPa Calm   1mph /  1.6km/h 83% 0.00in /  0mm 90 W/m2
16:24 57 °F /  13.9 °C 52 °F /  11.1 °C 29.74in /  1007hPa SW 0.7mph /  1.1km/h 3mph /  4.8km/h 83% 0.00in /  0mm 100 W/m2
16:29 56.9 °F /  13.8 °C 51.9 °F /  11.1 °C 29.74in /  1007hPa SW 2.5mph /  4km/h 5mph /  8km/h 83% 0.00in /  0mm 91 W/m2
16:34 56.8 °F /  13.8 °C 51.8 °F /  11 °C 29.74in /  1007hPa SW 1.9mph /  3.1km/h 4mph /  6.4km/h 83% 0.00in /  0mm 81 W/m2
16:39 56.8 °F /  13.8 °C 51.8 °F /  11 °C 29.74in /  1007hPa SW 2mph /  3.2km/h 5mph /  8km/h 83% 0.00in /  0mm 67 W/m2
16:44 57 °F /  13.9 °C 52 °F /  11.1 °C 29.73in /  1006.7hPa SW 1.1mph /  1.8km/h 4mph /  6.4km/h 83% 0.00in /  0mm 58 W/m2
16:49 56.8 °F /  13.8 °C 52 °F /  11.1 °C 29.73in /  1006.7hPa SW 1.6mph /  2.6km/h 4mph /  6.4km/h 84% 0.00in /  0mm 49 W/m2
16:54 56.8 °F /  13.8 °C 52 °F /  11.1 °C 29.73in /  1006.7hPa SW 0.4mph /  0.6km/h 3mph /  4.8km/h 84% 0.00in /  0mm 49 W/m2
16:59 56.8 °F /  13.8 °C 51.9 °F /  11.1 °C 29.73in /  1006.7hPa SW 2.2mph /  3.5km/h 6mph /  9.7km/h 84% 0.00in /  0mm 40 W/m2
17:04 56.7 °F /  13.7 °C 52.1 °F /  11.2 °C 29.74in /  1007hPa SW 0.4mph /  0.6km/h 3mph /  4.8km/h 84.7% 0.00in /  0mm 44 W/m2
17:09 56.8 °F /  13.8 °C 52.3 °F /  11.3 °C 29.74in /  1007hPa SW 0.6mph /  1km/h 3mph /  4.8km/h 85% 0.00in /  0mm 42 W/m2
17:14 56.7 °F /  13.7 °C 52.5 °F /  11.4 °C 29.73in /  1006.7hPa SW 1.8mph /  2.9km/h 4mph /  6.4km/h 85.6% 0.00in /  0mm 32 W/m2
17:19 56.7 °F /  13.7 °C 52.5 °F /  11.4 °C 29.73in /  1006.7hPa SW 0.3mph /  0.5km/h 4mph /  6.4km/h 86% 0.00in /  0mm 28 W/m2
17:24 56.7 °F /  13.7 °C 52.6 °F /  11.4 °C 29.73in /  1006.7hPa SW 1.3mph /  2.1km/h 4mph /  6.4km/h 86.1% 0.00in /  0mm 25 W/m2
17:29 56.7 °F /  13.7 °C 52.9 °F /  11.6 °C 29.73in /  1006.7hPa SW 1.6mph /  2.6km/h 4mph /  6.4km/h 87% 0.00in /  0mm 19 W/m2
17:34 56.6 °F /  13.7 °C 52.8 °F /  11.6 °C 29.72in /  1006.3hPa SW 0.5mph /  0.8km/h 4mph /  6.4km/h 87% 0.00in /  0mm 12 W/m2
17:39 56.6 °F /  13.7 °C 52.8 °F /  11.6 °C 29.72in /  1006.3hPa SW 0.8mph /  1.3km/h 5mph /  8km/h 87% 0.00in /  0mm 14 W/m2
17:44 56.4 °F /  13.6 °C 52.7 °F /  11.5 °C 29.72in /  1006.3hPa SW 1mph /  1.6km/h 5mph /  8km/h 87.2% 0.00in /  0mm 14 W/m2
17:49 56.5 °F /  13.6 °C 52.9 °F /  11.6 °C 29.73in /  1006.7hPa SW 0.4mph /  0.6km/h 2mph /  3.2km/h 88% 0.00in /  0mm 11 W/m2
17:54 56.3 °F /  13.5 °C 52.9 °F /  11.6 °C 29.73in /  1006.7hPa SW 2.6mph /  4.2km/h 7mph /  11.3km/h 88% 0.00in /  0mm 9 W/m2
17:59 56.1 °F /  13.4 °C 52.7 °F /  11.5 °C 29.73in /  1006.7hPa SW 2.7mph /  4.3km/h 7mph /  11.3km/h 88% 0.01in /  0.25mm 7 W/m2
18:04 56 °F /  13.3 °C 52.6 °F /  11.4 °C 29.73in /  1006.7hPa SW 1.8mph /  2.9km/h 5mph /  8km/h 88% 0.01in /  0.25mm 0 W/m2
18:09 55.9 °F /  13.3 °C 52.5 °F /  11.4 °C 29.73in /  1006.7hPa SW 1.2mph /  1.9km/h 5mph /  8km/h 88% 0.01in /  0.25mm 0 W/m2
18:14 55.9 °F /  13.3 °C 52.5 °F /  11.4 °C 29.73in /  1006.7hPa SW 0.9mph /  1.4km/h 4mph /  6.4km/h 88% 0.01in /  0.25mm 0 W/m2
18:19 55.9 °F /  13.3 °C 52.5 °F /  11.4 °C 29.74in /  1007hPa SW 0.6mph /  1km/h 4mph /  6.4km/h 88% 0.01in /  0.25mm 0 W/m2
18:24 55.9 °F /  13.3 °C 52.4 °F /  11.3 °C 29.74in /  1007hPa SW 0.6mph /  1km/h 4mph /  6.4km/h 88% 0.01in /  0.25mm 0 W/m2
18:29 55.8 °F /  13.2 °C 52.4 °F /  11.3 °C 29.74in /  1007hPa SW 0.2mph /  0.3km/h 4mph /  6.4km/h 88.6% 0.01in /  0.25mm 0 W/m2
18:34 55.8 °F /  13.2 °C 52.5 °F /  11.4 °C 29.73in /  1006.7hPa SW 1.1mph /  1.8km/h 4mph /  6.4km/h 89% 0.01in /  0.25mm 0 W/m2
18:39 55.6 °F /  13.1 °C 52.3 °F /  11.3 °C 29.74in /  1007hPa SW 0.2mph /  0.3km/h 4mph /  6.4km/h 89% 0.01in /  0.25mm 0 W/m2
18:44 55.6 °F /  13.1 °C 52.3 °F /  11.3 °C 29.74in /  1007hPa SW 0.4mph /  0.6km/h 2mph /  3.2km/h 89% 0.02in /  0.51mm 0 W/m2
18:49 55.5 °F /  13.1 °C 52.2 °F /  11.2 °C 29.74in /  1007hPa Calm   2mph /  3.2km/h 89% 0.02in /  0.51mm 0 W/m2
18:54 55.5 °F /  13.1 °C 52.3 °F /  11.3 °C 29.74in /  1007hPa SW 0.2mph /  0.3km/h 2mph /  3.2km/h 89% 0.02in /  0.51mm 0 W/m2
18:59 55.3 °F /  12.9 °C 52.1 °F /  11.2 °C 29.74in /  1007hPa SW 0.9mph /  1.4km/h 3mph /  4.8km/h 89.1% 0.01in /  0.25mm 0 W/m2
19:04 55.2 °F /  12.9 °C 52.3 °F /  11.3 °C 29.74in /  1007hPa SW 0.8mph /  1.3km/h 4mph /  6.4km/h 90% 0.02in /  0.51mm 0 W/m2
19:09 55.1 °F /  12.8 °C 52.2 °F /  11.2 °C 29.74in /  1007hPa SW 0.4mph /  0.6km/h 4mph /  6.4km/h 90% 0.02in /  0.51mm 0 W/m2
19:14 54.9 °F /  12.7 °C 52.1 °F /  11.2 °C 29.74in /  1007hPa SW 3.8mph /  6.1km/h 7mph /  11.3km/h 90% 0.02in /  0.51mm 0 W/m2
19:19 54.9 °F /  12.7 °C 52 °F /  11.1 °C 29.74in /  1007hPa SW 2.8mph /  4.5km/h 7mph /  11.3km/h 90% 0.02in /  0.51mm 0 W/m2
19:24 54.8 °F /  12.7 °C 52.1 °F /  11.2 °C 29.74in /  1007hPa SW 1.8mph /  2.9km/h 5mph /  8km/h 90.6% 0.02in /  0.51mm 0 W/m2
19:29 54.7 °F /  12.6 °C 52.1 °F /  11.2 °C 29.74in /  1007hPa SW 1.3mph /  2.1km/h 4mph /  6.4km/h 90.9% 0.02in /  0.51mm 0 W/m2
19:34 54.7 °F /  12.6 °C 52.2 °F /  11.2 °C 29.74in /  1007hPa SW 0.1mph /  0.2km/h 3mph /  4.8km/h 91% 0.02in /  0.51mm 0 W/m2
19:39 54.6 °F /  12.6 °C 52.1 °F /  11.2 °C 29.74in /  1007hPa SW 2mph /  3.2km/h 7mph /  11.3km/h 91% 0.02in /  0.51mm 0 W/m2
19:44 54.4 °F /  12.4 °C 51.9 °F /  11.1 °C 29.73in /  1006.7hPa SW 1.2mph /  1.9km/h 4mph /  6.4km/h 91% 0.02in /  0.51mm 0 W/m2
19:49 54.3 °F /  12.4 °C 51.8 °F /  11 °C 29.74in /  1007hPa SW 0.3mph /  0.5km/h 4mph /  6.4km/h 91% 0.02in /  0.51mm 0 W/m2
19:54 54.2 °F /  12.3 °C 51.7 °F /  10.9 °C 29.74in /  1007hPa SW 1.9mph /  3.1km/h 5mph /  8km/h 91% 0.02in /  0.51mm 0 W/m2
19:59 54.1 °F /  12.3 °C 51.6 °F /  10.9 °C 29.74in /  1007hPa SW 1.3mph /  2.1km/h 4mph /  6.4km/h 91% 0.02in /  0.51mm 0 W/m2
20:04 54 °F /  12.2 °C 51.5 °F /  10.8 °C 29.74in /  1007hPa SW 1.7mph /  2.7km/h 5mph /  8km/h 91% 0.02in /  0.51mm 0 W/m2
20:09 54 °F /  12.2 °C 51.4 °F /  10.8 °C 29.74in /  1007hPa SW 1.4mph /  2.3km/h 5mph /  8km/h 91% 0.01in /  0.25mm 0 W/m2
20:14 54 °F /  12.2 °C 51.4 °F /  10.8 °C 29.74in /  1007hPa SW 0.9mph /  1.4km/h 4mph /  6.4km/h 91% 0.01in /  0.25mm 0 W/m2
20:19 54 °F /  12.2 °C 51.4 °F /  10.8 °C 29.74in /  1007hPa SW 0.7mph /  1.1km/h 4mph /  6.4km/h 91% 0.01in /  0.25mm 0 W/m2
20:24 54 °F /  12.2 °C 51.4 °F /  10.8 °C 29.74in /  1007hPa SW 1.8mph /  2.9km/h 4mph /  6.4km/h 91% 0.01in /  0.25mm 0 W/m2
20:29 53.9 °F /  12.2 °C 51.4 °F /  10.8 °C 29.74in /  1007hPa SW 1.3mph /  2.1km/h 5mph /  8km/h 91% 0.01in /  0.25mm 0 W/m2
20:34 53.9 °F /  12.2 °C 51.3 °F /  10.7 °C 29.74in /  1007hPa SW 1.5mph /  2.4km/h 6mph /  9.7km/h 91% 0.01in /  0.25mm 0 W/m2
20:39 53.8 °F /  12.1 °C 51.3 °F /  10.7 °C 29.74in /  1007hPa SW 0.4mph /  0.6km/h 5mph /  8km/h 91.2% 0.01in /  0.25mm 0 W/m2
20:44 53.8 °F /  12.1 °C 51.3 °F /  10.7 °C 29.74in /  1007hPa SW 0.6mph /  1km/h 4mph /  6.4km/h 91.3% 0.01in /  0.25mm 0 W/m2
20:49 53.8 °F /  12.1 °C 51.4 °F /  10.8 °C 29.74in /  1007hPa Calm   4mph /  6.4km/h 91.8% 0.00in /  0mm 0 W/m2
20:54 53.8 °F /  12.1 °C 51.4 °F /  10.8 °C 29.73in /  1006.7hPa Calm     92% 0.00in /  0mm 0 W/m2
20:59 53.8 °F /  12.1 °C 51.4 °F /  10.8 °C 29.74in /  1007hPa Calm     92% 0.01in /  0.25mm 0 W/m2
21:04 53.8 °F /  12.1 °C 51.4 °F /  10.8 °C 29.74in /  1007hPa Calm     92% 0.01in /  0.25mm 0 W/m2
21:09 53.8 °F /  12.1 °C 51.4 °F /  10.8 °C 29.73in /  1006.7hPa Calm     92% 0.01in /  0.25mm 0 W/m2
21:14 53.8 °F /  12.1 °C 51.4 °F /  10.8 °C 29.73in /  1006.7hPa Calm     92% 0.01in /  0.25mm 0 W/m2
21:19 53.8 °F /  12.1 °C 51.4 °F /  10.8 °C 29.73in /  1006.7hPa Calm     92% 0.02in /  0.51mm 0 W/m2
21:24 53.8 °F /  12.1 °C 51.4 °F /  10.8 °C 29.73in /  1006.7hPa Calm     92% 0.02in /  0.51mm 0 W/m2
21:29 53.6 °F /  12 °C 51.3 °F /  10.7 °C 29.74in /  1007hPa Calm     92% 0.02in /  0.51mm 0 W/m2
21:34 53.5 °F /  11.9 °C 51.2 °F /  10.7 °C 29.73in /  1006.7hPa SW 0.1mph /  0.2km/h 1mph /  1.6km/h 92% 0.02in /  0.51mm 0 W/m2
21:39 53.4 °F /  11.9 °C 51.1 °F /  10.6 °C 29.74in /  1007hPa SW 0.6mph /  1km/h 2mph /  3.2km/h 92% 0.02in /  0.51mm 0 W/m2
21:44 53.2 °F /  11.8 °C 50.9 °F /  10.5 °C 29.74in /  1007hPa Calm   2mph /  3.2km/h 92% 0.02in /  0.51mm 0 W/m2
21:49 53.1 °F /  11.7 °C 50.7 °F /  10.4 °C 29.73in /  1006.7hPa Calm     92% 0.02in /  0.51mm 0 W/m2
21:54 53.1 °F /  11.7 °C 50.7 °F /  10.4 °C 29.73in /  1006.7hPa Calm     92% 0.02in /  0.51mm 0 W/m2
21:59 53.2 °F /  11.8 °C 50.9 °F /  10.5 °C 29.73in /  1006.7hPa Calm     92% 0.02in /  0.51mm 0 W/m2
22:04 53.2 °F /  11.8 °C 51.1 °F /  10.6 °C 29.73in /  1006.7hPa Calm     92.6% 0.02in /  0.51mm 0 W/m2
22:09 53 °F /  11.7 °C 50.6 °F /  10.3 °C 29.73in /  1006.7hPa Calm     92.1% 0.02in /  0.51mm 0 W/m2
22:14 52.9 °F /  11.6 °C 50.5 °F /  10.3 °C 29.73in /  1006.7hPa Calm     92% 0.02in /  0.51mm 0 W/m2
22:19 53 °F /  11.7 °C 50.6 °F /  10.3 °C 29.73in /  1006.7hPa Calm     92% 0.02in /  0.51mm 0 W/m2
22:24 52.9 °F /  11.6 °C 50.7 °F /  10.4 °C 29.73in /  1006.7hPa Calm     92.5% 0.01in /  0.25mm 0 W/m2
22:29 52.9 °F /  11.6 °C 50.9 °F /  10.5 °C 29.73in /  1006.7hPa Calm     93% 0.02in /  0.51mm 0 W/m2
22:34 52.9 °F /  11.6 °C 50.9 °F /  10.5 °C 29.72in /  1006.3hPa Calm     93% 0.02in /  0.51mm 0 W/m2
22:39 52.9 °F /  11.6 °C 50.9 °F /  10.5 °C 29.73in /  1006.7hPa Calm     93% 0.02in /  0.51mm 0 W/m2
22:44 52.7 °F /  11.5 °C 50.7 °F /  10.4 °C 29.73in /  1006.7hPa Calm     93% 0.02in /  0.51mm 0 W/m2
22:49 52.5 °F /  11.4 °C 50.5 °F /  10.3 °C 29.73in /  1006.7hPa Calm     93% 0.02in /  0.51mm 0 W/m2
22:54 52.5 °F /  11.4 °C 50.5 °F /  10.3 °C 29.73in /  1006.7hPa Calm   1mph /  1.6km/h 93% 0.02in /  0.51mm 0 W/m2
22:59 52.5 °F /  11.4 °C 50.5 °F /  10.3 °C 29.72in /  1006.3hPa SW 0.1mph /  0.2km/h 1mph /  1.6km/h 93% 0.02in /  0.51mm 0 W/m2
23:04 52.4 °F /  11.3 °C 50.5 °F /  10.3 °C 29.72in /  1006.3hPa Calm     93% 0.02in /  0.51mm 0 W/m2
23:09 52.3 °F /  11.3 °C 50.4 °F /  10.2 °C 29.72in /  1006.3hPa Calm   1mph /  1.6km/h 93% 0.02in /  0.51mm 0 W/m2
23:14 52.3 °F /  11.3 °C 50.4 °F /  10.2 °C 29.72in /  1006.3hPa Calm   1mph /  1.6km/h 93% 0.02in /  0.51mm 0 W/m2
23:19 52.3 °F /  11.3 °C 50.4 °F /  10.2 °C 29.72in /  1006.3hPa SW 0.1mph /  0.2km/h 1mph /  1.6km/h 93% 0.02in /  0.51mm 0 W/m2
23:24 52.3 °F /  11.3 °C 50.3 °F /  10.2 °C 29.72in /  1006.3hPa Calm   1mph /  1.6km/h 93% 0.02in /  0.51mm 0 W/m2
23:29 52.2 °F /  11.2 °C 50.3 °F /  10.2 °C 29.72in /  1006.3hPa SW 0.1mph /  0.2km/h 1mph /  1.6km/h 93% 0.02in /  0.51mm 0 W/m2
23:34 52.3 °F /  11.3 °C 50.3 °F /  10.2 °C 29.72in /  1006.3hPa SW 0.4mph /  0.6km/h 3mph /  4.8km/h 93% 0.02in /  0.51mm 0 W/m2
23:39 52.2 °F /  11.2 °C 50.3 °F /  10.2 °C 29.72in /  1006.3hPa SW 0.2mph /  0.3km/h 3mph /  4.8km/h 93% 0.02in /  0.51mm 0 W/m2
23:44 52.2 °F /  11.2 °C 50.2 °F /  10.1 °C 29.72in /  1006.3hPa Calm   1mph /  1.6km/h 93% 0.02in /  0.51mm 0 W/m2
23:49 52.2 °F /  11.2 °C 50.3 °F /  10.2 °C 29.72in /  1006.3hPa Calm     93% 0.02in /  0.51mm 0 W/m2
23:54 52.2 °F /  11.2 °C 50.3 °F /  10.2 °C 29.71in /  1006hPa SW 0.4mph /  0.6km/h 2mph /  3.2km/h 93% 0.01in /  0.25mm 0 W/m2
23:59 52.2 °F /  11.2 °C 50.3 °F /  10.2 °C 29.71in /  1006hPa SW 0.4mph /  0.6km/h 2mph /  3.2km/h 93% 0.02in /  0.51mm 0 W/m2
Bath Spa Weather
Compliments of Weather Underground - 2 mb